createdAt,value
2023-03-13T00:01:03.165Z,5.68
2023-03-13T00:03:29.439Z,4.55
2023-03-13T00:05:58.935Z,4.75
2023-03-13T00:08:25.560Z,4.60
2023-03-13T00:10:51.945Z,5.15
2023-03-13T00:13:18.350Z,4.57
2023-03-13T00:15:44.669Z,4.78
2023-03-13T00:18:10.972Z,4.43
2023-03-13T00:20:37.314Z,4.28
2023-03-13T00:23:03.661Z,4.38
2023-03-13T00:25:30.026Z,4.80
2023-03-13T00:27:56.321Z,4.63
2023-03-13T00:30:22.585Z,4.28
2023-03-13T00:32:49.005Z,5.10
2023-03-13T00:35:16.102Z,4.20
2023-03-13T00:37:42.658Z,4.72
2023-03-13T00:40:09.421Z,6.05
2023-03-13T00:42:36.368Z,5.10
2023-03-13T00:45:03.100Z,4.93
2023-03-13T00:47:29.416Z,5.15
2023-03-13T00:49:55.711Z,4.10
2023-03-13T00:52:21.979Z,5.15
2023-03-13T00:54:48.265Z,6.18
2023-03-13T00:57:14.552Z,5.15
2023-03-13T00:59:40.856Z,5.65
2023-03-13T01:02:07.322Z,5.10
2023-03-13T01:04:33.748Z,5.10
2023-03-13T01:06:59.999Z,5.93
2023-03-13T01:09:26.350Z,5.68
2023-03-13T01:11:52.663Z,5.55
2023-03-13T01:14:19.655Z,5.40
2023-03-13T01:16:46.274Z,5.30
2023-03-13T01:19:14.387Z,5.22
2023-03-13T01:21:42.074Z,5.30
2023-03-13T01:24:08.477Z,5.65
2023-03-13T01:26:34.822Z,5.22
2023-03-13T01:29:01.099Z,4.95
2023-03-13T01:31:28.942Z,4.60
2023-03-13T01:33:56.754Z,5.22
2023-03-13T01:36:23.069Z,4.88
2023-03-13T01:38:50.104Z,4.35
2023-03-13T01:41:16.626Z,4.28
2023-03-13T01:43:44.009Z,4.45
2023-03-13T01:46:17.685Z,4.35
2023-03-13T01:48:51.212Z,3.80
2023-03-13T01:51:33.055Z,4.03
2023-03-13T01:54:02.147Z,4.00
2023-03-13T01:56:33.312Z,4.50
2023-03-13T01:58:59.925Z,4.78
2023-03-13T02:01:26.664Z,4.40
2023-03-13T02:03:53.396Z,4.93
2023-03-13T02:06:19.937Z,4.97
2023-03-13T02:08:50.557Z,4.97
2023-03-13T02:11:24.575Z,5.25
2023-03-13T02:13:51.910Z,5.30
2023-03-13T02:16:19.031Z,4.75
2023-03-13T02:18:45.811Z,6.07
2023-03-13T02:21:16.162Z,7.13
2023-03-13T02:23:48.231Z,7.30
2023-03-13T02:26:14.537Z,6.50
2023-03-13T02:28:40.870Z,6.93
2023-03-13T02:31:08.164Z,7.57
2023-03-13T02:33:36.697Z,7.50
2023-03-13T02:36:03.504Z,7.72
2023-03-13T02:38:30.904Z,7.95
2023-03-13T02:40:57.851Z,7.95
2023-03-13T02:43:24.163Z,8.35
2023-03-13T02:46:04.620Z,6.85
2023-03-13T02:48:33.706Z,8.10
2023-03-13T02:51:00.864Z,9.93
2023-03-13T02:53:27.473Z,8.68
2023-03-13T02:55:53.801Z,7.97
2023-03-13T02:58:20.047Z,8.43
2023-03-13T03:00:46.391Z,11.10
2023-03-13T03:03:12.724Z,9.45
2023-03-13T03:05:38.981Z,12.00
2023-03-13T03:08:05.266Z,10.52
2023-03-13T03:10:31.548Z,11.82
2023-03-13T03:12:57.981Z,10.95
2023-03-13T03:15:24.278Z,12.57
2023-03-13T03:17:50.606Z,11.30
2023-03-13T03:20:16.913Z,11.07
2023-03-13T03:22:43.239Z,10.95
2023-03-13T03:25:09.656Z,11.30
2023-03-13T03:27:38.900Z,9.90
2023-03-13T03:30:05.512Z,11.73
2023-03-13T03:32:32.030Z,10.95
2023-03-13T03:34:58.335Z,10.85
2023-03-13T03:37:24.662Z,10.80
2023-03-13T03:39:51.024Z,11.50
2023-03-13T03:42:17.329Z,11.02
2023-03-13T03:44:43.602Z,11.10
2023-03-13T03:47:09.904Z,10.27
2023-03-13T03:49:36.462Z,10.93
2023-03-13T03:52:02.980Z,9.38
2023-03-13T03:54:29.404Z,8.88
2023-03-13T03:56:55.678Z,10.63
2023-03-13T03:59:22.041Z,9.70
2023-03-13T04:01:48.398Z,9.60
2023-03-13T04:04:14.758Z,8.75
2023-03-13T04:06:41.003Z,9.38
2023-03-13T04:09:07.291Z,9.25
2023-03-13T04:11:33.619Z,9.15
2023-03-13T04:14:00.001Z,9.48
2023-03-13T04:16:26.408Z,7.63
2023-03-13T04:18:52.684Z,8.57
2023-03-13T04:21:19.204Z,8.60
2023-03-13T04:23:45.481Z,8.35
2023-03-13T04:26:11.787Z,8.25
2023-03-13T04:28:38.039Z,8.38
2023-03-13T04:31:04.470Z,7.78
2023-03-13T04:33:30.875Z,8.38
2023-03-13T04:35:57.147Z,8.10
2023-03-13T04:38:23.530Z,7.80
2023-03-13T04:40:49.966Z,7.53
2023-03-13T04:43:16.316Z,7.60
2023-03-13T04:45:42.573Z,8.57
2023-03-13T04:48:08.899Z,8.55
2023-03-13T04:50:35.313Z,8.32
2023-03-13T04:53:01.797Z,8.05
2023-03-13T04:55:28.209Z,8.00
2023-03-13T04:57:54.504Z,7.40
2023-03-13T05:00:20.874Z,7.22
2023-03-13T05:02:47.187Z,6.63
2023-03-13T05:05:13.620Z,6.93
2023-03-13T05:07:39.962Z,6.53
2023-03-13T05:10:06.458Z,5.70
2023-03-13T05:12:33.127Z,5.88
2023-03-13T05:14:59.503Z,5.57
2023-03-13T05:17:25.861Z,6.72
2023-03-13T05:19:52.116Z,4.88
2023-03-13T05:22:18.360Z,5.32
2023-03-13T05:24:44.686Z,5.85
2023-03-13T05:27:10.979Z,4.55
2023-03-13T05:29:37.317Z,4.40
2023-03-13T05:32:03.617Z,4.90
2023-03-13T05:34:29.904Z,5.05
2023-03-13T05:36:56.255Z,4.57
2023-03-13T05:39:22.739Z,4.38
2023-03-13T05:41:49.169Z,4.22
2023-03-13T05:44:15.476Z,4.18
2023-03-13T05:46:41.789Z,3.92
2023-03-13T05:49:08.134Z,3.92
2023-03-13T05:51:34.472Z,3.85
2023-03-13T05:54:00.881Z,3.35
2023-03-13T05:56:27.203Z,3.00
2023-03-13T05:58:53.555Z,2.85
2023-03-13T06:01:19.916Z,3.25
2023-03-13T06:03:46.303Z,4.03
2023-03-13T06:06:12.675Z,4.10
2023-03-13T06:08:38.927Z,3.05
2023-03-13T06:11:05.271Z,2.95
2023-03-13T06:13:31.567Z,3.40
2023-03-13T06:15:58.525Z,3.00
2023-03-13T06:18:25.288Z,3.38
2023-03-13T06:20:55.967Z,3.28
2023-03-13T06:23:22.242Z,4.43
2023-03-13T06:25:48.612Z,3.53
2023-03-13T06:28:15.156Z,3.60
2023-03-13T06:30:41.511Z,2.92
2023-03-13T06:33:08.311Z,3.72
2023-03-13T06:35:43.536Z,3.67
2023-03-13T06:38:19.909Z,3.35
2023-03-13T06:40:47.900Z,2.85
2023-03-13T06:43:14.258Z,3.67
2023-03-13T06:45:40.567Z,3.67
2023-03-13T06:48:06.909Z,2.92
2023-03-13T06:50:33.392Z,3.97
2023-03-13T06:52:59.760Z,5.13
2023-03-13T06:55:26.165Z,3.35
2023-03-13T06:57:52.669Z,2.60
2023-03-13T07:00:19.866Z,2.80
2023-03-13T07:02:46.185Z,3.35
2023-03-13T07:05:14.504Z,2.85
2023-03-13T07:07:41.709Z,3.03
2023-03-13T07:10:08.419Z,3.40
2023-03-13T07:12:35.349Z,3.50
2023-03-13T07:15:01.766Z,3.05
2023-03-13T07:17:28.625Z,3.60
2023-03-13T07:19:54.982Z,3.40
2023-03-13T07:22:21.455Z,3.40
2023-03-13T07:24:48.509Z,2.92
2023-03-13T07:27:18.052Z,5.70
2023-03-13T07:29:44.362Z,3.53
2023-03-13T07:32:10.750Z,4.13
2023-03-13T07:34:37.150Z,3.90
2023-03-13T07:37:03.534Z,3.50
2023-03-13T07:39:29.876Z,2.83
2023-03-13T07:41:56.182Z,3.50
2023-03-13T07:44:22.496Z,3.17
2023-03-13T07:46:50.159Z,3.85
2023-03-13T07:49:16.490Z,3.60
2023-03-13T07:51:44.367Z,4.18
2023-03-13T07:54:11.805Z,4.47
2023-03-13T07:56:38.482Z,3.90
2023-03-13T07:59:05.458Z,3.45
2023-03-13T08:01:32.318Z,3.70
2023-03-13T08:04:02.307Z,3.95
2023-03-13T08:06:32.601Z,3.38
2023-03-13T08:09:00.162Z,3.28
2023-03-13T08:11:27.194Z,3.75
2023-03-13T08:13:53.976Z,3.05
2023-03-13T08:16:21.707Z,3.35
2023-03-13T08:18:49.290Z,3.00
2023-03-13T08:21:17.412Z,2.92
2023-03-13T08:23:43.952Z,2.72
2023-03-13T08:26:18.057Z,2.67
2023-03-13T08:28:45.402Z,2.83
2023-03-13T08:31:13.018Z,3.08
2023-03-13T08:33:39.802Z,3.50
2023-03-13T08:36:11.422Z,3.25
2023-03-13T08:38:38.162Z,3.15
2023-03-13T08:41:04.692Z,3.33
2023-03-13T08:43:31.043Z,3.25
2023-03-13T08:45:57.398Z,3.10
2023-03-13T08:48:23.970Z,3.20
2023-03-13T08:50:59.991Z,3.35
2023-03-13T08:53:26.320Z,3.30
2023-03-13T08:55:53.697Z,3.55
2023-03-13T08:58:20.029Z,2.90
2023-03-13T09:00:46.539Z,3.95
2023-03-13T09:03:12.912Z,2.85
2023-03-13T09:05:54.964Z,3.63
2023-03-13T09:08:22.257Z,2.95
2023-03-13T09:10:48.656Z,2.60
2023-03-13T09:13:14.905Z,2.88
2023-03-13T09:15:41.287Z,2.88
2023-03-13T09:18:07.771Z,2.60
2023-03-13T09:20:34.129Z,2.50
2023-03-13T09:23:00.454Z,2.40
2023-03-13T09:25:26.782Z,2.13
2023-03-13T09:27:53.192Z,2.53
2023-03-13T09:30:19.561Z,2.63
2023-03-13T09:32:46.008Z,2.83
2023-03-13T09:35:12.513Z,2.35
2023-03-13T09:37:38.812Z,2.40
2023-03-13T09:40:05.808Z,2.38
2023-03-13T09:42:46.240Z,1.85
2023-03-13T09:45:16.145Z,1.98
2023-03-13T09:47:44.359Z,1.88
2023-03-13T09:50:15.771Z,1.98
2023-03-13T09:52:42.136Z,2.00
2023-03-13T09:55:20.956Z,2.60
2023-03-13T09:57:47.249Z,1.90
2023-03-13T10:00:24.734Z,1.60
2023-03-13T10:03:11.478Z,1.73
2023-03-13T10:05:39.475Z,1.77
2023-03-13T10:08:12.926Z,1.20
2023-03-13T10:10:39.194Z,1.75
2023-03-13T10:13:13.036Z,1.25
2023-03-13T10:15:43.941Z,1.50
2023-03-13T10:18:17.923Z,1.50
2023-03-13T10:20:45.668Z,1.20
2023-03-13T10:23:38.125Z,1.00
2023-03-13T10:26:04.610Z,1.30
2023-03-13T10:28:30.939Z,1.05
2023-03-13T10:31:09.796Z,1.63
2023-03-13T10:33:37.151Z,1.10
2023-03-13T10:36:05.575Z,1.38
2023-03-13T10:38:33.426Z,1.30
2023-03-13T10:41:20.561Z,1.40
2023-03-13T10:43:50.391Z,1.38
2023-03-13T10:46:24.072Z,1.60
2023-03-13T10:48:53.908Z,1.35
2023-03-13T10:51:24.189Z,1.10
2023-03-13T10:53:51.587Z,1.20
2023-03-13T10:56:25.658Z,3.75
2023-03-13T10:58:52.774Z,1.40
2023-03-13T11:01:24.232Z,2.15
2023-03-13T11:03:51.946Z,1.90
2023-03-13T11:06:27.644Z,1.80
2023-03-13T11:09:00.154Z,1.48
2023-03-13T11:11:30.919Z,1.30
2023-03-13T11:14:13.792Z,1.63
2023-03-13T11:16:46.590Z,1.35
2023-03-13T11:19:13.024Z,1.40
2023-03-13T11:21:39.393Z,1.75
2023-03-13T11:24:25.969Z,1.80
2023-03-13T11:27:04.627Z,1.13
2023-03-13T11:29:37.574Z,1.70
2023-03-13T11:32:09.501Z,1.60
2023-03-13T11:34:47.814Z,1.50
2023-03-13T11:37:15.300Z,1.55
2023-03-13T11:39:52.150Z,1.35
2023-03-13T11:42:39.441Z,1.40
2023-03-13T11:45:05.859Z,1.05
2023-03-13T11:47:32.437Z,1.33
2023-03-13T11:50:01.761Z,1.30
2023-03-13T11:52:40.507Z,1.30
2023-03-13T11:55:09.841Z,1.15
2023-03-13T11:57:55.166Z,1.00
2023-03-13T12:00:23.043Z,1.08
2023-03-13T12:02:56.173Z,1.20
2023-03-13T12:05:23.289Z,1.38
2023-03-13T12:07:58.596Z,1.10
2023-03-13T12:10:31.402Z,1.25
2023-03-13T12:13:07.496Z,1.23
2023-03-13T12:15:38.550Z,1.30
2023-03-13T12:18:13.963Z,1.20
2023-03-13T12:23:17.114Z,1.27
2023-03-13T12:25:45.927Z,1.60
2023-03-13T12:28:24.104Z,1.40
2023-03-13T12:30:56.426Z,1.50
2023-03-13T12:33:29.527Z,1.80
2023-03-13T12:36:12.235Z,1.90
2023-03-13T12:38:38.708Z,1.20
2023-03-13T12:41:05.060Z,1.33
2023-03-13T12:43:32.495Z,1.50
2023-03-13T12:45:59.010Z,1.90
2023-03-13T12:48:37.529Z,1.75
2023-03-13T12:51:03.848Z,1.58
2023-03-13T12:53:49.019Z,1.75
2023-03-13T12:56:18.385Z,2.15
2023-03-13T12:58:49.875Z,1.70
2023-03-13T13:01:36.540Z,1.50
2023-03-13T13:04:11.965Z,1.33
2023-03-13T13:09:14.524Z,1.92
2023-03-13T13:11:45.358Z,1.48
2023-03-13T13:14:11.656Z,1.77
2023-03-13T13:16:42.314Z,2.03
2023-03-13T13:19:24.154Z,2.40
2023-03-13T13:22:09.411Z,1.98
2023-03-13T13:24:49.128Z,2.22
2023-03-13T13:27:34.594Z,2.45
2023-03-13T13:30:01.982Z,2.28
2023-03-13T13:32:33.153Z,3.42
2023-03-13T13:35:18.415Z,1.80
2023-03-13T13:37:47.032Z,2.45
2023-03-13T13:40:24.108Z,1.92
2023-03-13T13:42:52.175Z,2.42
2023-03-13T13:45:26.107Z,2.97
2023-03-13T13:48:12.387Z,2.08
2023-03-13T13:50:38.919Z,2.53
2023-03-13T13:53:29.116Z,2.42
2023-03-13T13:55:58.654Z,2.92
2023-03-13T13:58:27.625Z,2.08
2023-03-13T14:00:59.933Z,3.17
2023-03-13T14:03:27.344Z,2.30
2023-03-13T14:06:01.975Z,2.47
2023-03-13T14:08:33.026Z,2.30
2023-03-13T14:11:14.663Z,3.47
2023-03-13T14:13:41.550Z,2.53
2023-03-13T14:16:34.597Z,2.83
2023-03-13T14:19:01.012Z,2.78
2023-03-13T14:21:27.748Z,2.70
2023-03-13T14:23:54.260Z,2.55
2023-03-13T14:26:22.106Z,2.90
2023-03-13T14:28:53.498Z,3.53
2023-03-13T14:31:26.034Z,2.22
2023-03-13T14:33:53.022Z,2.85
2023-03-13T14:36:19.551Z,3.38
2023-03-13T14:38:56.395Z,2.67
2023-03-13T14:41:31.936Z,2.88
2023-03-13T14:44:02.842Z,3.75
2023-03-13T14:46:33.339Z,3.90
2023-03-13T14:49:14.722Z,2.65
2023-03-13T14:51:41.228Z,2.50
2023-03-13T14:54:23.531Z,2.60
2023-03-13T14:56:49.805Z,2.92
2023-03-13T14:59:17.463Z,2.92
2023-03-13T15:01:44.148Z,3.50
2023-03-13T15:04:10.495Z,1.77
2023-03-13T15:06:37.088Z,2.90
2023-03-13T15:09:17.459Z,3.42
2023-03-13T15:11:54.863Z,2.58
2023-03-13T15:14:40.869Z,3.33
2023-03-13T15:19:33.429Z,2.83
2023-03-13T15:21:59.837Z,2.63
2023-03-13T15:24:26.191Z,4.00
2023-03-13T15:26:52.504Z,3.55
2023-03-13T15:29:20.148Z,2.90
2023-03-13T15:31:46.486Z,2.30
2023-03-13T15:34:13.962Z,3.08
2023-03-13T15:36:41.701Z,2.92
2023-03-13T15:39:15.186Z,4.47
2023-03-13T15:41:41.475Z,2.50
2023-03-13T15:44:07.799Z,2.72
2023-03-13T15:46:34.476Z,3.05
2023-03-13T15:49:00.872Z,2.92
2023-03-13T15:51:27.762Z,2.60
2023-03-13T15:53:54.232Z,1.95
2023-03-13T15:56:22.944Z,3.40
2023-03-13T15:58:49.741Z,3.13
2023-03-13T16:01:17.148Z,3.15
2023-03-13T16:03:43.703Z,3.38
2023-03-13T16:06:13.465Z,2.95
2023-03-13T16:08:39.804Z,2.90
2023-03-13T16:11:06.231Z,3.15
2023-03-13T16:13:33.296Z,3.13
2023-03-13T16:15:59.621Z,2.92
2023-03-13T16:18:26.093Z,2.65
2023-03-13T16:20:52.822Z,2.75
2023-03-13T16:23:19.072Z,2.63
2023-03-13T16:25:45.900Z,3.10
2023-03-13T16:28:13.242Z,2.90
2023-03-13T16:30:49.122Z,3.80
2023-03-13T16:33:15.494Z,3.15
2023-03-13T16:35:41.903Z,2.67
2023-03-13T16:38:10.828Z,3.45
2023-03-13T16:40:37.133Z,3.42
2023-03-13T16:43:03.566Z,3.42
2023-03-13T16:45:29.834Z,4.25
2023-03-13T16:47:56.274Z,2.95
2023-03-13T16:50:27.100Z,3.38
2023-03-13T16:52:54.269Z,3.08
2023-03-13T16:55:20.995Z,3.67
2023-03-13T16:57:47.370Z,4.25
2023-03-13T17:00:15.373Z,2.90
2023-03-13T17:02:41.845Z,3.78
2023-03-13T17:05:09.635Z,5.13
2023-03-13T17:07:35.935Z,3.75
2023-03-13T17:10:02.396Z,3.88
2023-03-13T17:12:28.829Z,4.03
2023-03-13T17:14:55.397Z,3.58
2023-03-13T17:17:22.660Z,3.53
2023-03-13T17:19:48.988Z,3.35
2023-03-13T17:22:16.673Z,3.53
2023-03-13T17:24:43.459Z,3.35
2023-03-13T17:27:12.168Z,3.88
2023-03-13T17:29:38.504Z,3.65
2023-03-13T17:32:06.202Z,4.85
2023-03-13T17:34:33.115Z,4.22
2023-03-13T17:37:01.798Z,4.38
2023-03-13T17:39:28.129Z,5.07
2023-03-13T17:41:54.442Z,3.65
2023-03-13T17:44:20.840Z,3.60
2023-03-13T17:46:47.483Z,4.88
2023-03-13T17:49:15.396Z,3.92
2023-03-13T17:51:42.144Z,5.43
2023-03-13T17:54:08.764Z,4.13
2023-03-13T17:56:38.657Z,4.93
2023-03-13T17:59:06.538Z,3.97
2023-03-13T18:01:34.224Z,4.90
2023-03-13T18:04:00.927Z,4.45
2023-03-13T18:06:31.522Z,5.00
2023-03-13T18:08:59.727Z,4.63
2023-03-13T18:11:26.804Z,4.38
2023-03-13T18:13:53.567Z,4.25
2023-03-13T18:16:25.448Z,4.53
2023-03-13T18:18:52.487Z,4.18
2023-03-13T18:21:18.887Z,3.65
2023-03-13T18:23:45.440Z,4.03
2023-03-13T18:26:24.319Z,3.72
2023-03-13T18:28:50.851Z,4.00
2023-03-13T18:31:17.307Z,5.90
2023-03-13T18:33:43.676Z,5.05
2023-03-13T18:36:14.970Z,4.32
2023-03-13T18:38:41.260Z,4.60
2023-03-13T18:41:10.076Z,4.45
2023-03-13T18:43:37.065Z,4.95
2023-03-13T18:46:03.949Z,4.93
2023-03-13T18:48:30.345Z,5.43
2023-03-13T18:50:56.718Z,5.18
2023-03-13T18:53:23.291Z,3.53
2023-03-13T18:55:50.588Z,4.90
2023-03-13T18:58:16.914Z,5.25
2023-03-13T19:00:43.450Z,4.60
2023-03-13T19:03:09.888Z,4.82
2023-03-13T19:05:36.239Z,4.97
2023-03-13T19:08:02.989Z,4.72
2023-03-13T19:10:31.073Z,5.00
2023-03-13T19:12:57.771Z,4.50
2023-03-13T19:15:26.238Z,4.95
2023-03-13T19:17:54.115Z,6.20
2023-03-13T19:20:21.511Z,4.18
2023-03-13T19:22:48.151Z,5.18
2023-03-13T19:25:17.062Z,4.53
2023-03-13T19:27:43.606Z,5.57
2023-03-13T19:30:16.841Z,4.47
2023-03-13T19:32:43.429Z,4.93
2023-03-13T19:35:12.239Z,5.32
2023-03-13T19:37:39.332Z,4.70
2023-03-13T19:40:07.605Z,4.68
2023-03-13T19:42:35.317Z,4.47
2023-03-13T19:45:01.986Z,4.45
2023-03-13T19:47:28.328Z,4.30
2023-03-13T19:49:54.694Z,4.97
2023-03-13T19:52:21.078Z,4.25
2023-03-13T19:54:47.560Z,4.18
2023-03-13T19:57:13.844Z,3.75
2023-03-13T19:59:40.278Z,4.22
2023-03-13T20:02:06.856Z,4.07
2023-03-13T20:04:33.638Z,4.47
2023-03-13T20:06:59.967Z,4.65
2023-03-13T20:09:26.283Z,4.55
2023-03-13T20:11:52.601Z,5.45
2023-03-13T20:14:18.870Z,4.35
2023-03-13T20:16:47.447Z,4.35
2023-03-13T20:19:13.916Z,4.57
2023-03-13T20:21:41.995Z,4.28
2023-03-13T20:24:11.410Z,4.55
2023-03-13T20:26:37.903Z,4.45
2023-03-13T20:29:04.224Z,4.80
2023-03-13T20:31:31.312Z,4.90
2023-03-13T20:33:58.638Z,4.63
2023-03-13T20:36:25.560Z,3.88
2023-03-13T20:38:52.147Z,4.32
2023-03-13T20:41:24.497Z,4.05
2023-03-13T20:43:51.309Z,5.28
2023-03-13T20:46:17.823Z,4.32
2023-03-13T20:48:44.147Z,4.85
2023-03-13T20:51:10.468Z,4.32
2023-03-13T20:53:37.618Z,4.13
2023-03-13T20:56:06.540Z,3.90
2023-03-13T20:58:33.403Z,3.70
2023-03-13T21:01:00.336Z,4.05
2023-03-13T21:03:27.149Z,5.00
2023-03-13T21:05:53.557Z,3.80
2023-03-13T21:08:20.588Z,4.57
2023-03-13T21:10:47.980Z,4.47
2023-03-13T21:13:14.286Z,4.90
2023-03-13T21:15:40.879Z,5.30
2023-03-13T21:18:07.222Z,4.40
2023-03-13T21:20:33.536Z,4.70
2023-03-13T21:22:59.856Z,5.53
2023-03-13T21:25:26.234Z,4.85
2023-03-13T21:27:52.529Z,4.20
2023-03-13T21:30:20.137Z,3.83
2023-03-13T21:32:47.247Z,4.57
2023-03-13T21:35:13.980Z,4.10
2023-03-13T21:37:40.836Z,3.58
2023-03-13T21:40:08.839Z,4.90
2023-03-13T21:42:36.074Z,4.35
2023-03-13T21:45:03.438Z,4.65
2023-03-13T21:47:31.634Z,4.30
2023-03-13T21:50:00.513Z,4.15
2023-03-13T21:52:27.085Z,4.25
2023-03-13T21:54:53.361Z,4.20
2023-03-13T21:57:19.913Z,4.25
2023-03-13T21:59:46.282Z,3.92
2023-03-13T22:02:13.129Z,3.65
2023-03-13T22:04:39.629Z,4.47
2023-03-13T22:07:06.376Z,3.83
2023-03-13T22:09:33.236Z,4.97
2023-03-13T22:11:59.642Z,3.65
2023-03-13T22:14:27.961Z,4.15
2023-03-13T22:16:54.518Z,4.32
2023-03-13T22:19:20.943Z,4.00
2023-03-13T22:21:47.273Z,3.72
2023-03-13T22:24:13.617Z,3.70
2023-03-13T22:26:39.925Z,3.88
2023-03-13T22:29:06.230Z,3.10
2023-03-13T22:31:32.919Z,4.43
2023-03-13T22:33:59.218Z,3.50
2023-03-13T22:36:25.761Z,3.78
2023-03-13T22:38:52.233Z,4.35
2023-03-13T22:41:18.789Z,3.63
2023-03-13T22:43:45.076Z,4.57
2023-03-13T22:46:11.774Z,4.97
2023-03-13T22:48:38.756Z,4.70
2023-03-13T22:51:11.945Z,4.18
2023-03-13T22:53:39.743Z,3.72
2023-03-13T22:56:06.890Z,4.38
2023-03-13T22:58:33.840Z,4.85
2023-03-13T23:01:00.224Z,4.90
2023-03-13T23:03:26.606Z,4.35
2023-03-13T23:05:53.067Z,4.75
2023-03-13T23:08:19.487Z,5.55
2023-03-13T23:10:46.821Z,4.53
2023-03-13T23:13:13.705Z,4.00
2023-03-13T23:15:55.261Z,4.05
2023-03-13T23:18:22.503Z,5.03
2023-03-13T23:20:48.836Z,4.22
2023-03-13T23:23:15.152Z,4.75
2023-03-13T23:25:41.589Z,4.10
2023-03-13T23:28:07.947Z,5.88
2023-03-13T23:30:34.308Z,4.03
2023-03-13T23:33:00.651Z,4.13
2023-03-13T23:35:27.014Z,4.50
2023-03-13T23:37:53.871Z,4.93
2023-03-13T23:40:21.119Z,4.72
2023-03-13T23:42:48.265Z,5.10
2023-03-13T23:45:14.670Z,4.45
2023-03-13T23:47:42.323Z,5.07
2023-03-13T23:50:08.793Z,4.13
2023-03-13T23:52:35.611Z,4.57
2023-03-13T23:55:03.089Z,4.93
2023-03-13T23:57:29.423Z,4.40
2023-03-13T23:59:55.872Z,4.95
